createdAt,value
2022-10-25T00:01:32.429Z,4.30
2022-10-25T00:03:58.852Z,3.90
2022-10-25T00:06:25.137Z,4.60
2022-10-25T00:08:51.480Z,4.50
2022-10-25T00:11:22.073Z,4.78
2022-10-25T00:13:49.988Z,4.13
2022-10-25T00:16:17.551Z,4.20
2022-10-25T00:18:43.821Z,4.55
2022-10-25T00:21:10.079Z,4.78
2022-10-25T00:23:36.329Z,4.95
2022-10-25T00:26:06.508Z,3.85
2022-10-25T00:28:32.819Z,4.03
2022-10-25T00:31:00.036Z,3.42
2022-10-25T00:33:26.248Z,4.40
2022-10-25T00:35:52.501Z,3.45
2022-10-25T00:38:18.805Z,4.50
2022-10-25T00:40:45.049Z,3.72
2022-10-25T00:43:11.312Z,4.30
2022-10-25T00:45:37.645Z,4.28
2022-10-25T00:48:06.268Z,5.20
2022-10-25T00:50:41.404Z,4.55
2022-10-25T00:53:17.393Z,5.05
2022-10-25T00:55:45.560Z,5.18
2022-10-25T00:58:14.617Z,4.80
2022-10-25T01:00:41.121Z,5.72
2022-10-25T01:03:07.706Z,4.43
2022-10-25T01:05:34.642Z,5.30
2022-10-25T01:08:01.227Z,5.65
2022-10-25T01:10:27.544Z,5.80
2022-10-25T01:12:54.254Z,5.63
2022-10-25T01:15:24.900Z,4.88
2022-10-25T01:17:55.606Z,5.40
2022-10-25T01:20:40.884Z,5.85
2022-10-25T01:23:25.659Z,5.72
2022-10-25T01:25:51.882Z,5.88
2022-10-25T01:28:21.141Z,5.00
2022-10-25T01:30:59.694Z,5.53
2022-10-25T01:33:44.901Z,5.78
2022-10-25T01:38:45.313Z,5.53
2022-10-25T01:41:31.803Z,6.03
2022-10-25T01:44:04.170Z,5.43
2022-10-25T01:46:40.551Z,5.93
2022-10-25T01:49:10.537Z,5.22
2022-10-25T01:51:37.389Z,5.30
2022-10-25T01:54:03.695Z,5.43
2022-10-25T01:56:31.189Z,5.28
2022-10-25T01:59:00.594Z,6.40
2022-10-25T02:04:36.697Z,5.25
2022-10-25T02:07:15.583Z,5.57
2022-10-25T02:09:47.912Z,5.15
2022-10-25T02:12:20.440Z,5.50
2022-10-25T02:14:53.937Z,6.13
2022-10-25T02:17:22.421Z,6.50
2022-10-25T02:19:53.512Z,6.57
2022-10-25T02:22:20.898Z,5.97
2022-10-25T02:27:15.012Z,6.47
2022-10-25T02:29:41.830Z,6.80
2022-10-25T02:32:08.448Z,5.95
2022-10-25T02:34:34.798Z,6.10
2022-10-25T02:37:01.210Z,5.75
2022-10-25T02:39:31.282Z,5.47
2022-10-25T02:41:58.115Z,6.18
2022-10-25T02:44:24.423Z,6.55
2022-10-25T02:46:50.690Z,6.28
2022-10-25T02:49:16.935Z,6.00
2022-10-25T02:51:43.268Z,6.57
2022-10-25T02:54:09.501Z,6.55
2022-10-25T02:56:35.814Z,6.45
2022-10-25T02:59:02.059Z,6.38
2022-10-25T03:01:28.481Z,6.22
2022-10-25T03:03:54.883Z,6.53
2022-10-25T03:06:21.434Z,6.88
2022-10-25T03:08:47.773Z,7.03
2022-10-25T03:11:14.941Z,6.10
2022-10-25T03:13:41.314Z,6.00
2022-10-25T03:16:07.785Z,6.57
2022-10-25T03:18:34.134Z,6.57
2022-10-25T03:21:01.108Z,5.47
2022-10-25T03:23:28.123Z,5.50
2022-10-25T03:25:57.817Z,5.55
2022-10-25T03:28:24.668Z,6.10
2022-10-25T03:30:50.926Z,5.97
2022-10-25T03:33:17.233Z,5.95
2022-10-25T03:35:43.534Z,6.20
2022-10-25T03:38:09.916Z,5.10
2022-10-25T03:40:36.186Z,5.40
2022-10-25T03:43:02.482Z,5.88
2022-10-25T03:45:28.739Z,5.93
2022-10-25T03:47:54.977Z,6.22
2022-10-25T03:50:21.264Z,6.00
2022-10-25T03:52:47.559Z,6.25
2022-10-25T03:55:13.833Z,5.97
2022-10-25T03:57:40.090Z,5.95
2022-10-25T04:00:06.605Z,6.10
2022-10-25T04:02:32.834Z,5.23
2022-10-25T04:04:59.081Z,5.03
2022-10-25T04:07:25.420Z,4.95
2022-10-25T04:09:51.673Z,5.25
2022-10-25T04:12:17.881Z,5.50
2022-10-25T04:14:44.133Z,6.30
2022-10-25T04:17:10.423Z,5.32
2022-10-25T04:19:36.956Z,6.80
2022-10-25T04:22:03.294Z,6.40
2022-10-25T04:24:29.859Z,5.57
2022-10-25T04:26:56.154Z,6.50
2022-10-25T04:29:22.430Z,5.82
2022-10-25T04:31:48.839Z,6.03
2022-10-25T04:34:15.143Z,5.80
2022-10-25T04:36:41.415Z,5.78
2022-10-25T04:39:07.706Z,5.55
2022-10-25T04:41:33.956Z,6.10
2022-10-25T04:44:00.300Z,5.80
2022-10-25T04:46:26.591Z,6.03
2022-10-25T04:48:52.884Z,6.22
2022-10-25T04:51:19.151Z,6.15
2022-10-25T04:53:45.536Z,6.72
2022-10-25T04:56:14.270Z,6.95
2022-10-25T04:58:40.919Z,6.28
2022-10-25T05:01:08.629Z,6.50
2022-10-25T05:03:35.172Z,6.70
2022-10-25T05:06:25.351Z,6.70
2022-10-25T05:08:51.704Z,7.05
2022-10-25T05:11:18.956Z,5.93
2022-10-25T05:13:45.305Z,6.38
2022-10-25T05:16:21.809Z,7.18
2022-10-25T05:18:48.853Z,7.35
2022-10-25T05:21:15.498Z,6.55
2022-10-25T05:23:41.962Z,7.18
2022-10-25T05:26:08.202Z,7.50
2022-10-25T05:28:35.234Z,6.82
2022-10-25T05:33:39.950Z,7.32
2022-10-25T05:36:06.343Z,7.60
2022-10-25T05:38:34.368Z,6.82
2022-10-25T05:41:04.249Z,6.93
2022-10-25T05:43:30.496Z,6.57
2022-10-25T05:46:02.677Z,6.85
2022-10-25T05:48:29.013Z,7.00
2022-10-25T05:51:03.468Z,6.90
2022-10-25T05:53:44.512Z,7.30
2022-10-25T05:56:10.923Z,7.60
2022-10-25T05:58:37.346Z,7.55
2022-10-25T06:01:03.699Z,7.63
2022-10-25T06:03:29.954Z,8.27
2022-10-25T06:05:59.978Z,8.48
2022-10-25T06:08:26.308Z,8.52
2022-10-25T06:10:52.577Z,9.20
2022-10-25T06:13:18.803Z,8.55
2022-10-25T06:15:45.055Z,9.10
2022-10-25T06:18:11.310Z,8.98
2022-10-25T06:20:37.649Z,9.13
2022-10-25T06:23:06.932Z,9.38
2022-10-25T06:25:35.498Z,10.25
2022-10-25T06:28:01.754Z,8.57
2022-10-25T06:30:28.137Z,10.18
2022-10-25T06:32:54.677Z,9.93
2022-10-25T06:35:20.909Z,9.63
2022-10-25T06:37:47.167Z,8.93
2022-10-25T06:40:13.481Z,9.32
2022-10-25T06:42:39.783Z,8.63
2022-10-25T06:45:06.217Z,9.18
2022-10-25T06:47:32.467Z,8.40
2022-10-25T06:49:58.906Z,9.25
2022-10-25T06:52:25.252Z,9.03
2022-10-25T06:54:51.494Z,10.48
2022-10-25T06:57:17.778Z,8.65
2022-10-25T06:59:45.831Z,9.77
2022-10-25T07:02:12.192Z,9.52
2022-10-25T07:04:38.586Z,10.63
2022-10-25T07:07:04.890Z,10.25
2022-10-25T07:09:31.172Z,9.35
2022-10-25T07:11:57.419Z,10.15
2022-10-25T07:14:23.698Z,9.95
2022-10-25T07:16:49.974Z,9.93
2022-10-25T07:19:16.333Z,9.45
2022-10-25T07:21:42.566Z,10.43
2022-10-25T07:24:11.031Z,10.05
2022-10-25T07:26:37.348Z,10.45
2022-10-25T07:29:04.124Z,9.65
2022-10-25T07:31:33.368Z,10.15
2022-10-25T07:34:00.335Z,9.05
2022-10-25T07:36:27.091Z,8.88
2022-10-25T07:38:53.592Z,8.70
2022-10-25T07:41:19.916Z,9.23
2022-10-25T07:43:46.188Z,9.00
2022-10-25T07:46:12.424Z,9.32
2022-10-25T07:48:38.748Z,8.57
2022-10-25T07:51:06.005Z,8.50
2022-10-25T07:53:32.524Z,8.80
2022-10-25T07:55:58.769Z,9.18
2022-10-25T07:58:25.039Z,9.43
2022-10-25T08:00:51.293Z,8.52
2022-10-25T08:03:18.307Z,8.60
2022-10-25T08:05:45.238Z,8.63
2022-10-25T08:08:12.048Z,9.35
2022-10-25T08:10:38.291Z,10.38
2022-10-25T08:13:04.549Z,9.05
2022-10-25T08:15:30.782Z,9.15
2022-10-25T08:17:57.848Z,9.05
2022-10-25T08:20:43.063Z,7.80
2022-10-25T08:23:10.652Z,10.57
2022-10-25T08:25:36.903Z,9.25
2022-10-25T08:28:03.340Z,8.77
2022-10-25T08:30:29.637Z,9.87
2022-10-25T08:32:58.589Z,9.77
2022-10-25T08:35:25.090Z,8.52
2022-10-25T08:37:51.341Z,8.98
2022-10-25T08:40:23.610Z,8.48
2022-10-25T08:43:05.232Z,8.50
2022-10-25T08:45:41.990Z,8.02
2022-10-25T08:48:13.784Z,7.97
2022-10-25T08:50:45.730Z,8.63
2022-10-25T08:53:30.973Z,9.07
2022-10-25T08:56:15.290Z,8.43
2022-10-25T08:58:49.591Z,7.78
2022-10-25T09:01:18.866Z,8.35
2022-10-25T09:03:45.234Z,6.95
2022-10-25T09:06:11.463Z,7.35
2022-10-25T09:08:46.628Z,8.55
2022-10-25T09:11:18.519Z,6.90
2022-10-25T09:13:51.032Z,6.97
2022-10-25T09:16:18.372Z,7.13
2022-10-25T09:21:35.139Z,7.03
2022-10-25T09:24:05.223Z,7.57
2022-10-25T09:26:31.426Z,7.20
2022-10-25T09:29:02.440Z,7.93
2022-10-25T09:31:32.023Z,8.00
2022-10-25T09:34:04.259Z,7.18
2022-10-25T09:36:33.379Z,6.60
2022-10-25T09:39:02.140Z,7.90
2022-10-25T09:41:34.821Z,8.18
2022-10-25T09:44:12.465Z,7.85
2022-10-25T09:46:44.946Z,6.95
2022-10-25T09:49:33.798Z,7.68
2022-10-25T09:52:21.486Z,7.18
2022-10-25T09:54:50.508Z,6.77
2022-10-25T09:57:16.783Z,7.80
2022-10-25T09:59:43.165Z,6.88
2022-10-25T10:02:23.350Z,7.17
2022-10-25T10:04:50.054Z,7.97
2022-10-25T10:07:16.297Z,7.07
2022-10-25T10:09:45.867Z,7.22
2022-10-25T10:12:18.091Z,7.18
2022-10-25T10:14:47.710Z,7.43
2022-10-25T10:17:15.145Z,7.25
2022-10-25T10:19:41.507Z,6.85
2022-10-25T10:22:09.509Z,7.47
2022-10-25T10:24:40.864Z,7.47
2022-10-25T10:27:09.695Z,6.20
2022-10-25T10:29:52.314Z,7.68
2022-10-25T10:32:23.417Z,7.88
2022-10-25T10:34:54.245Z,7.50
2022-10-25T10:37:21.699Z,7.80
2022-10-25T10:40:01.051Z,7.82
2022-10-25T10:45:09.260Z,7.60
2022-10-25T10:47:35.501Z,6.97
2022-10-25T10:50:02.687Z,7.45
2022-10-25T10:54:55.733Z,6.30
2022-10-25T10:57:28.651Z,6.70
2022-10-25T10:59:58.630Z,6.57
2022-10-25T11:02:27.659Z,5.88
2022-10-25T11:04:55.323Z,6.13
2022-10-25T11:07:24.440Z,6.57
2022-10-25T11:09:50.698Z,5.25
2022-10-25T11:12:17.560Z,5.97
2022-10-25T11:14:43.848Z,5.88
2022-10-25T11:17:24.413Z,5.90
2022-10-25T11:20:09.668Z,5.68
2022-10-25T11:22:36.035Z,5.07
2022-10-25T11:25:02.325Z,5.87
2022-10-25T11:27:47.752Z,5.80
2022-10-25T11:30:16.117Z,6.43
2022-10-25T11:32:51.257Z,5.22
2022-10-25T11:35:36.699Z,4.90
2022-10-25T11:38:03.070Z,4.53
2022-10-25T11:40:30.656Z,4.53
2022-10-25T11:43:15.733Z,4.18
2022-10-25T11:45:43.936Z,4.85
2022-10-25T11:48:29.274Z,4.07
2022-10-25T11:51:01.536Z,3.38
2022-10-25T11:53:40.690Z,3.90
2022-10-25T11:56:06.917Z,3.47
2022-10-25T11:58:46.461Z,3.80
2022-10-25T12:01:19.030Z,4.13
2022-10-25T12:04:04.218Z,4.03
2022-10-25T12:06:36.519Z,3.67
2022-10-25T12:09:10.941Z,4.45
2022-10-25T12:11:43.366Z,3.60
2022-10-25T12:14:15.204Z,3.25
2022-10-25T12:16:41.909Z,3.72
2022-10-25T12:19:13.478Z,3.30
2022-10-25T12:21:56.714Z,3.78
2022-10-25T12:24:35.934Z,2.85
2022-10-25T12:27:02.679Z,3.30
2022-10-25T12:29:37.177Z,3.25
2022-10-25T12:32:05.955Z,3.40
2022-10-25T12:34:41.307Z,3.78
2022-10-25T12:37:16.518Z,2.88
2022-10-25T12:39:43.913Z,3.08
2022-10-25T12:42:24.683Z,3.00
2022-10-25T12:45:06.799Z,3.20
2022-10-25T12:47:57.480Z,3.25
2022-10-25T12:50:26.888Z,2.95
2022-10-25T12:52:59.148Z,2.80
2022-10-25T12:55:25.484Z,2.80
2022-10-25T12:57:51.734Z,2.40
2022-10-25T13:03:05.683Z,2.30
2022-10-25T13:05:41.703Z,2.20
2022-10-25T13:08:08.965Z,3.08
2022-10-25T13:10:39.690Z,2.03
2022-10-25T13:13:07.727Z,2.70
2022-10-25T13:15:47.559Z,2.30
2022-10-25T13:18:28.537Z,2.47
2022-10-25T13:20:55.128Z,2.55
2022-10-25T13:23:40.241Z,2.25
2022-10-25T13:26:08.122Z,2.40
2022-10-25T13:28:44.464Z,1.70
2022-10-25T13:31:29.781Z,2.22
2022-10-25T13:34:14.635Z,2.05
2022-10-25T13:36:53.305Z,2.20
2022-10-25T13:39:28.851Z,1.90
2022-10-25T13:42:07.720Z,2.38
2022-10-25T13:44:34.467Z,1.90
2022-10-25T13:47:00.720Z,2.50
2022-10-25T13:49:33.277Z,2.67
2022-10-25T13:52:00.852Z,2.30
2022-10-25T13:54:47.419Z,2.42
2022-10-25T13:57:43.079Z,1.90
2022-10-25T14:00:26.961Z,2.40
2022-10-25T14:03:03.613Z,2.20
2022-10-25T14:06:05.252Z,2.57
2022-10-25T14:08:35.252Z,2.58
2022-10-25T14:11:05.359Z,2.38
2022-10-25T14:13:39.701Z,1.95
2022-10-25T14:16:06.141Z,2.08
2022-10-25T14:18:34.486Z,2.05
2022-10-25T14:21:05.272Z,2.22
2022-10-25T14:23:33.840Z,1.90
2022-10-25T14:26:01.207Z,1.90
2022-10-25T14:28:31.989Z,2.17
2022-10-25T14:30:59.269Z,2.20
2022-10-25T14:33:45.750Z,1.90
2022-10-25T14:36:25.106Z,1.80
2022-10-25T14:38:51.364Z,1.88
2022-10-25T14:41:20.548Z,2.03
2022-10-25T14:43:47.364Z,1.90
2022-10-25T14:46:14.862Z,1.90
2022-10-25T14:48:42.202Z,2.00
2022-10-25T14:51:21.516Z,2.40
2022-10-25T14:53:49.653Z,2.38
2022-10-25T14:56:19.994Z,2.33
2022-10-25T14:58:46.279Z,2.13
2022-10-25T15:01:12.856Z,2.13
2022-10-25T15:03:43.456Z,2.88
2022-10-25T15:06:11.744Z,2.45
2022-10-25T15:08:38.989Z,2.13
2022-10-25T15:11:09.528Z,2.65
2022-10-25T15:13:41.915Z,2.88
2022-10-25T15:16:26.590Z,3.08
2022-10-25T15:19:05.775Z,2.95
2022-10-25T15:21:39.250Z,3.20
2022-10-25T15:24:13.497Z,3.60
2022-10-25T15:26:50.579Z,3.83
2022-10-25T15:29:28.831Z,3.60
2022-10-25T15:31:55.124Z,3.53
2022-10-25T15:34:21.957Z,3.60
2022-10-25T15:36:49.813Z,3.83
2022-10-25T15:39:25.241Z,3.65
2022-10-25T15:41:51.495Z,3.75
2022-10-25T15:44:17.736Z,3.93
2022-10-25T15:46:44.019Z,4.00
2022-10-25T15:49:12.294Z,3.63
2022-10-25T15:51:39.986Z,4.00
2022-10-25T15:54:10.685Z,3.92
2022-10-25T15:56:36.951Z,4.28
2022-10-25T15:59:03.325Z,3.93
2022-10-25T16:01:29.785Z,4.00
2022-10-25T16:03:56.154Z,4.72
2022-10-25T16:06:22.412Z,5.80
2022-10-25T16:08:48.665Z,4.80
2022-10-25T16:11:16.440Z,3.70
2022-10-25T16:13:44.573Z,4.40
2022-10-25T16:16:35.164Z,3.80
2022-10-25T16:19:03.668Z,6.10
2022-10-25T16:21:30.176Z,4.97
2022-10-25T16:23:56.458Z,5.43
2022-10-25T16:26:36.678Z,5.90
2022-10-25T16:29:03.680Z,5.22
2022-10-25T16:31:31.054Z,7.50
2022-10-25T16:33:57.362Z,12.45
2022-10-25T16:36:23.592Z,12.47
2022-10-25T16:38:49.878Z,21.63
2022-10-25T16:41:26.291Z,22.67
2022-10-25T16:43:52.564Z,33.60
2022-10-25T16:46:18.876Z,36.72
2022-10-25T16:48:45.406Z,31.60
2022-10-25T16:51:15.463Z,27.65
2022-10-25T16:53:42.272Z,21.42
2022-10-25T16:56:09.137Z,17.45
2022-10-25T16:58:35.544Z,11.57
2022-10-25T17:01:01.904Z,7.77
2022-10-25T17:03:28.217Z,8.07
2022-10-25T17:05:54.492Z,7.43
2022-10-25T17:08:20.821Z,8.35
2022-10-25T17:10:47.090Z,7.87
2022-10-25T17:13:15.912Z,8.27
2022-10-25T17:15:42.433Z,7.45
2022-10-25T17:18:10.060Z,6.90
2022-10-25T17:20:37.992Z,6.13
2022-10-25T17:23:04.309Z,7.35
2022-10-25T17:25:30.580Z,6.57
2022-10-25T17:27:56.848Z,5.90
2022-10-25T17:30:23.176Z,6.63
2022-10-25T17:32:49.936Z,6.23
2022-10-25T17:35:16.333Z,6.00
2022-10-25T17:37:44.406Z,5.70
2022-10-25T17:40:11.664Z,6.07
2022-10-25T17:42:37.916Z,6.57
2022-10-25T17:45:04.611Z,7.00
2022-10-25T17:47:30.829Z,6.32
2022-10-25T17:50:01.468Z,6.55
2022-10-25T17:52:28.013Z,6.55
2022-10-25T17:54:54.291Z,6.03
2022-10-25T17:57:20.564Z,6.20
2022-10-25T17:59:47.067Z,7.00
2022-10-25T18:02:13.451Z,7.20
2022-10-25T18:04:53.680Z,6.67
2022-10-25T18:07:28.873Z,6.20
2022-10-25T18:09:57.588Z,5.78
2022-10-25T18:12:23.913Z,9.68
2022-10-25T18:14:55.366Z,10.15
2022-10-25T18:17:22.187Z,9.82
2022-10-25T18:19:48.467Z,9.83
2022-10-25T18:22:14.813Z,8.50
2022-10-25T18:24:41.139Z,7.88
2022-10-25T18:27:07.769Z,6.85
2022-10-25T18:29:35.150Z,7.88
2022-10-25T18:32:01.437Z,6.57
2022-10-25T18:34:27.913Z,8.40
2022-10-25T18:36:54.213Z,9.03
2022-10-25T18:39:20.536Z,7.32
2022-10-25T18:41:48.232Z,6.55
2022-10-25T18:44:15.421Z,6.97
2022-10-25T18:49:08.137Z,5.90
2022-10-25T18:51:34.400Z,5.93
2022-10-25T18:54:01.223Z,6.00
2022-10-25T18:56:28.264Z,6.05
2022-10-25T18:58:56.581Z,6.90
2022-10-25T19:01:28.038Z,5.85
2022-10-25T19:03:55.984Z,6.00
2022-10-25T19:06:22.270Z,6.10
2022-10-25T19:08:49.353Z,6.25
2022-10-25T19:11:16.445Z,5.50
2022-10-25T19:13:46.204Z,5.18
2022-10-25T19:16:16.651Z,6.35
2022-10-25T19:18:43.215Z,6.43
2022-10-25T19:21:10.836Z,6.43
2022-10-25T19:23:39.140Z,5.80
2022-10-25T19:26:06.661Z,8.48
2022-10-25T19:28:33.383Z,6.30
2022-10-25T19:31:06.314Z,6.95
2022-10-25T19:33:32.636Z,5.40
2022-10-25T19:36:02.956Z,6.03
2022-10-25T19:38:29.253Z,5.88
2022-10-25T19:40:58.421Z,7.10
2022-10-25T19:43:24.753Z,7.03
2022-10-25T19:45:51.160Z,6.88
2022-10-25T19:48:17.408Z,6.88
2022-10-25T19:50:43.674Z,5.95
2022-10-25T19:53:09.974Z,6.22
2022-10-25T19:55:36.240Z,6.10
2022-10-25T19:58:04.152Z,6.88
2022-10-25T20:00:30.458Z,6.30
2022-10-25T20:02:56.727Z,5.80
2022-10-25T20:05:23.120Z,6.50
2022-10-25T20:07:49.684Z,7.20
2022-10-25T20:10:16.158Z,6.40
2022-10-25T20:12:42.890Z,7.47
2022-10-25T20:15:09.333Z,7.10
2022-10-25T20:17:35.607Z,6.97
2022-10-25T20:20:01.837Z,7.45
2022-10-25T20:22:28.106Z,6.85
2022-10-25T20:24:54.766Z,6.97
2022-10-25T20:27:21.004Z,7.60
2022-10-25T20:29:47.287Z,8.02
2022-10-25T20:32:14.929Z,7.35
2022-10-25T20:34:41.211Z,7.13
2022-10-25T20:37:09.654Z,8.10
2022-10-25T20:39:35.942Z,6.70
2022-10-25T20:42:02.186Z,6.90
2022-10-25T20:44:28.479Z,6.63
2022-10-25T20:46:54.698Z,6.53
2022-10-25T20:49:20.985Z,5.93
2022-10-25T20:51:47.235Z,6.22
2022-10-25T20:54:13.494Z,6.82
2022-10-25T20:56:39.959Z,6.43
2022-10-25T20:59:06.585Z,7.13
2022-10-25T21:01:32.978Z,6.87
2022-10-25T21:03:59.340Z,8.77
2022-10-25T21:06:25.636Z,6.78
2022-10-25T21:08:51.927Z,6.85
2022-10-25T21:11:18.162Z,7.35
2022-10-25T21:13:44.477Z,7.13
2022-10-25T21:16:14.733Z,6.97
2022-10-25T21:18:41.831Z,6.38
2022-10-25T21:21:09.346Z,7.63
2022-10-25T21:23:36.061Z,6.65
2022-10-25T21:26:03.961Z,7.32
2022-10-25T21:28:40.282Z,7.13
2022-10-25T21:31:08.591Z,6.70
2022-10-25T21:33:34.841Z,6.95
2022-10-25T21:36:08.704Z,6.80
2022-10-25T21:38:35.163Z,6.65
2022-10-25T21:41:12.173Z,8.20
2022-10-25T21:43:41.434Z,6.97
2022-10-25T21:46:07.793Z,8.10
2022-10-25T21:48:34.447Z,8.32
2022-10-25T21:51:01.017Z,6.57
2022-10-25T21:53:27.309Z,8.73
2022-10-25T21:56:12.800Z,7.20
2022-10-25T21:58:39.922Z,7.43
2022-10-25T22:01:07.001Z,7.25
2022-10-25T22:03:33.304Z,7.63
2022-10-25T22:05:59.607Z,7.13
2022-10-25T22:08:25.908Z,8.52
2022-10-25T22:10:55.905Z,7.30
2022-10-25T22:13:22.179Z,7.70
2022-10-25T22:15:58.575Z,7.30
2022-10-25T22:18:25.107Z,7.50
2022-10-25T22:20:55.236Z,6.77
2022-10-25T22:23:21.922Z,7.63
2022-10-25T22:25:48.184Z,9.18
2022-10-25T22:28:14.503Z,7.93
2022-10-25T22:30:40.798Z,8.30
2022-10-25T22:33:07.032Z,6.65
2022-10-25T22:35:35.183Z,9.45
2022-10-25T22:38:01.764Z,7.07
2022-10-25T22:40:28.424Z,7.75
2022-10-25T22:42:54.799Z,8.75
2022-10-25T22:45:21.079Z,8.23
2022-10-25T22:47:47.557Z,6.88
2022-10-25T22:50:14.051Z,8.57
2022-10-25T22:52:40.348Z,7.43
2022-10-25T22:55:10.328Z,7.75
2022-10-25T22:57:36.587Z,7.38
2022-10-25T23:00:02.838Z,8.23
2022-10-25T23:02:29.094Z,7.75
2022-10-25T23:04:55.354Z,6.40
2022-10-25T23:07:21.621Z,7.28
2022-10-25T23:09:47.914Z,7.38
2022-10-25T23:12:14.155Z,7.05
2022-10-25T23:14:40.418Z,7.63
2022-10-25T23:17:06.660Z,7.50
2022-10-25T23:19:32.900Z,7.60
2022-10-25T23:21:59.155Z,7.28
2022-10-25T23:24:25.368Z,7.80
2022-10-25T23:26:51.645Z,7.25
2022-10-25T23:29:17.962Z,7.22
2022-10-25T23:31:44.214Z,8.15
2022-10-25T23:34:10.574Z,8.05
2022-10-25T23:36:39.573Z,10.00
2022-10-25T23:39:06.612Z,7.55
2022-10-25T23:41:32.884Z,7.82
2022-10-25T23:43:59.221Z,7.97
2022-10-25T23:46:25.493Z,7.30
2022-10-25T23:48:51.764Z,8.23
2022-10-25T23:51:18.237Z,7.53
2022-10-25T23:53:45.518Z,7.85
2022-10-25T23:56:12.532Z,10.90
2022-10-25T23:58:38.915Z,8.27
